< < Back
Terminal Aerodrome Forecast


Current Version              Previous Versions:   1  2  3  4  5  6  7  8  9  

Terminal Aerodrome Forecast

183
FTUS42 KJAX 191100
TAFGNV
TAF
KGNV 191120Z 1912/2012 00000KT P6SM FEW100 BKN200
     FM191500 06004KT P6SM FEW050 SCT100 BKN200
     FM192300 00000KT P6SM BKN100 BKN200=

Latest METAR

556
SAUS70 KWBC 191300 RRH
MTRGNV
METAR KGNV 191253Z 00000KT 10SM CLR 08/07 A3014 RMK AO2 SLP206
T00830072


USA.gov is the U.S. government's official web portal to all federal, state and local government web resources and services.